sensor_id;sensor_type;location;lat;lon;timestamp;P1;durP1;ratioP1;P2;durP2;ratioP2
41667;SDS011;27356;50.920;5.350;2023-04-03T00:01:31;10.27;;;4.50;;
41667;SDS011;27356;50.920;5.350;2023-04-03T00:03:57;9.63;;;4.55;;
41667;SDS011;27356;50.920;5.350;2023-04-03T00:06:23;5.97;;;4.20;;
41667;SDS011;27356;50.920;5.350;2023-04-03T00:08:50;8.40;;;4.82;;
41667;SDS011;27356;50.920;5.350;2023-04-03T00:11:16;6.63;;;4.65;;
41667;SDS011;27356;50.920;5.350;2023-04-03T00:13:43;6.72;;;4.40;;
41667;SDS011;27356;50.920;5.350;2023-04-03T00:16:09;6.78;;;4.70;;
41667;SDS011;27356;50.920;5.350;2023-04-03T00:18:36;7.45;;;4.57;;
41667;SDS011;27356;50.920;5.350;2023-04-03T00:21:03;5.68;;;4.68;;
41667;SDS011;27356;50.920;5.350;2023-04-03T00:23:30;9.20;;;4.47;;
41667;SDS011;27356;50.920;5.350;2023-04-03T00:25:56;4.35;;;3.95;;
41667;SDS011;27356;50.920;5.350;2023-04-03T00:28:21;8.32;;;4.45;;
41667;SDS011;27356;50.920;5.350;2023-04-03T00:30:50;9.57;;;4.35;;
41667;SDS011;27356;50.920;5.350;2023-04-03T00:33:16;6.32;;;3.92;;
41667;SDS011;27356;50.920;5.350;2023-04-03T00:35:42;5.10;;;4.00;;
41667;SDS011;27356;50.920;5.350;2023-04-03T00:38:08;7.43;;;4.43;;
41667;SDS011;27356;50.920;5.350;2023-04-03T00:40:38;9.25;;;4.57;;
41667;SDS011;27356;50.920;5.350;2023-04-03T00:43:15;5.05;;;4.55;;
41667;SDS011;27356;50.920;5.350;2023-04-03T00:45:44;8.73;;;5.07;;
41667;SDS011;27356;50.920;5.350;2023-04-03T00:48:13;8.45;;;5.03;;
41667;SDS011;27356;50.920;5.350;2023-04-03T00:51:03;7.80;;;5.05;;
41667;SDS011;27356;50.920;5.350;2023-04-03T00:56:31;6.88;;;5.03;;
41667;SDS011;27356;50.920;5.350;2023-04-03T00:59:19;10.00;;;5.13;;
41667;SDS011;27356;50.920;5.350;2023-04-03T01:01:48;11.98;;;5.85;;
41667;SDS011;27356;50.920;5.350;2023-04-03T01:07:21;9.00;;;4.93;;
41667;SDS011;27356;50.920;5.350;2023-04-03T01:09:50;6.07;;;5.00;;
41667;SDS011;27356;50.920;5.350;2023-04-03T01:12:22;8.90;;;5.68;;
41667;SDS011;27356;50.920;5.350;2023-04-03T01:14:49;9.00;;;4.45;;
41667;SDS011;27356;50.920;5.350;2023-04-03T01:17:27;7.85;;;5.18;;
41667;SDS011;27356;50.920;5.350;2023-04-03T01:25:43;6.95;;;4.85;;
41667;SDS011;27356;50.920;5.350;2023-04-03T01:28:24;7.75;;;4.78;;
41667;SDS011;27356;50.920;5.350;2023-04-03T01:33:36;7.93;;;4.90;;
41667;SDS011;27356;50.920;5.350;2023-04-03T01:36:02;9.23;;;5.40;;
41667;SDS011;27356;50.920;5.350;2023-04-03T01:38:29;7.65;;;5.50;;
41667;SDS011;27356;50.920;5.350;2023-04-03T01:40:55;10.90;;;5.30;;
41667;SDS011;27356;50.920;5.350;2023-04-03T01:43:21;7.75;;;5.72;;
41667;SDS011;27356;50.920;5.350;2023-04-03T01:45:49;8.27;;;6.43;;
41667;SDS011;27356;50.920;5.350;2023-04-03T01:48:17;11.02;;;6.32;;
41667;SDS011;27356;50.920;5.350;2023-04-03T01:50:43;8.82;;;5.80;;
41667;SDS011;27356;50.920;5.350;2023-04-03T01:53:08;12.15;;;6.82;;
41667;SDS011;27356;50.920;5.350;2023-04-03T01:55:34;11.77;;;6.38;;
41667;SDS011;27356;50.920;5.350;2023-04-03T01:58:00;8.02;;;6.13;;
41667;SDS011;27356;50.920;5.350;2023-04-03T02:00:26;12.93;;;6.30;;
41667;SDS011;27356;50.920;5.350;2023-04-03T02:02:51;9.13;;;6.55;;
41667;SDS011;27356;50.920;5.350;2023-04-03T02:05:17;9.88;;;6.25;;
41667;SDS011;27356;50.920;5.350;2023-04-03T02:07:43;11.57;;;6.80;;
41667;SDS011;27356;50.920;5.350;2023-04-03T02:10:09;10.38;;;6.15;;
41667;SDS011;27356;50.920;5.350;2023-04-03T02:12:35;7.97;;;6.30;;
41667;SDS011;27356;50.920;5.350;2023-04-03T02:15:01;11.43;;;6.68;;
41667;SDS011;27356;50.920;5.350;2023-04-03T02:17:27;11.43;;;5.72;;
41667;SDS011;27356;50.920;5.350;2023-04-03T02:19:52;9.52;;;6.47;;
41667;SDS011;27356;50.920;5.350;2023-04-03T02:22:18;7.75;;;6.05;;
41667;SDS011;27356;50.920;5.350;2023-04-03T02:24:45;7.55;;;5.82;;
41667;SDS011;27356;50.920;5.350;2023-04-03T02:27:11;9.38;;;6.18;;
41667;SDS011;27356;50.920;5.350;2023-04-03T02:29:37;7.20;;;6.03;;
41667;SDS011;27356;50.920;5.350;2023-04-03T02:32:02;10.15;;;5.95;;
41667;SDS011;27356;50.920;5.350;2023-04-03T02:34:28;8.73;;;5.80;;
41667;SDS011;27356;50.920;5.350;2023-04-03T02:36:54;10.60;;;6.15;;
41667;SDS011;27356;50.920;5.350;2023-04-03T02:39:19;7.57;;;5.90;;
41667;SDS011;27356;50.920;5.350;2023-04-03T02:41:45;10.50;;;6.00;;
41667;SDS011;27356;50.920;5.350;2023-04-03T02:44:21;11.45;;;6.43;;
41667;SDS011;27356;50.920;5.350;2023-04-03T02:46:53;8.82;;;6.13;;
41667;SDS011;27356;50.920;5.350;2023-04-03T02:49:19;6.10;;;5.50;;
41667;SDS011;27356;50.920;5.350;2023-04-03T02:51:45;7.60;;;5.75;;
41667;SDS011;27356;50.920;5.350;2023-04-03T02:54:11;10.68;;;6.38;;
41667;SDS011;27356;50.920;5.350;2023-04-03T02:56:36;8.77;;;7.20;;
41667;SDS011;27356;50.920;5.350;2023-04-03T02:59:02;9.63;;;6.88;;
41667;SDS011;27356;50.920;5.350;2023-04-03T03:01:28;9.63;;;6.43;;
41667;SDS011;27356;50.920;5.350;2023-04-03T03:03:56;10.30;;;6.43;;
41667;SDS011;27356;50.920;5.350;2023-04-03T03:06:22;12.60;;;7.05;;
41667;SDS011;27356;50.920;5.350;2023-04-03T03:08:48;12.98;;;7.47;;
41667;SDS011;27356;50.920;5.350;2023-04-03T03:11:14;13.23;;;7.00;;
41667;SDS011;27356;50.920;5.350;2023-04-03T03:13:40;9.07;;;6.70;;
41667;SDS011;27356;50.920;5.350;2023-04-03T03:16:06;13.32;;;7.55;;
41667;SDS011;27356;50.920;5.350;2023-04-03T03:18:32;10.50;;;7.53;;
41667;SDS011;27356;50.920;5.350;2023-04-03T03:20:59;9.27;;;7.75;;
41667;SDS011;27356;50.920;5.350;2023-04-03T03:23:26;12.27;;;8.73;;
41667;SDS011;27356;50.920;5.350;2023-04-03T03:25:57;12.98;;;7.78;;
41667;SDS011;27356;50.920;5.350;2023-04-03T03:28:24;13.65;;;8.85;;
41667;SDS011;27356;50.920;5.350;2023-04-03T03:30:50;10.38;;;7.50;;
41667;SDS011;27356;50.920;5.350;2023-04-03T03:33:16;14.57;;;8.60;;
41667;SDS011;27356;50.920;5.350;2023-04-03T03:35:42;15.13;;;8.98;;
41667;SDS011;27356;50.920;5.350;2023-04-03T03:38:08;14.80;;;9.55;;
41667;SDS011;27356;50.920;5.350;2023-04-03T03:40:34;12.27;;;8.60;;
41667;SDS011;27356;50.920;5.350;2023-04-03T03:43:00;10.82;;;7.80;;
41667;SDS011;27356;50.920;5.350;2023-04-03T03:45:26;15.82;;;8.70;;
41667;SDS011;27356;50.920;5.350;2023-04-03T03:47:52;11.70;;;7.53;;
41667;SDS011;27356;50.920;5.350;2023-04-03T03:50:17;9.77;;;8.05;;
41667;SDS011;27356;50.920;5.350;2023-04-03T03:52:43;14.93;;;9.18;;
41667;SDS011;27356;50.920;5.350;2023-04-03T03:55:09;10.23;;;7.80;;
41667;SDS011;27356;50.920;5.350;2023-04-03T03:57:35;14.15;;;9.90;;
41667;SDS011;27356;50.920;5.350;2023-04-03T04:00:01;17.73;;;11.38;;
41667;SDS011;27356;50.920;5.350;2023-04-03T04:02:28;15.73;;;10.93;;
41667;SDS011;27356;50.920;5.350;2023-04-03T04:04:54;14.82;;;10.27;;
41667;SDS011;27356;50.920;5.350;2023-04-03T04:07:20;15.15;;;11.13;;
41667;SDS011;27356;50.920;5.350;2023-04-03T04:09:45;17.92;;;9.77;;
41667;SDS011;27356;50.920;5.350;2023-04-03T04:12:11;14.05;;;9.57;;
41667;SDS011;27356;50.920;5.350;2023-04-03T04:14:36;14.48;;;10.68;;
41667;SDS011;27356;50.920;5.350;2023-04-03T04:17:02;18.75;;;11.00;;
41667;SDS011;27356;50.920;5.350;2023-04-03T04:19:28;16.92;;;10.35;;
41667;SDS011;27356;50.920;5.350;2023-04-03T04:21:54;13.32;;;10.00;;
41667;SDS011;27356;50.920;5.350;2023-04-03T04:24:19;17.08;;;10.93;;
41667;SDS011;27356;50.920;5.350;2023-04-03T04:26:47;20.33;;;11.52;;
41667;SDS011;27356;50.920;5.350;2023-04-03T04:29:13;18.40;;;11.70;;
41667;SDS011;27356;50.920;5.350;2023-04-03T04:31:39;18.40;;;11.82;;
41667;SDS011;27356;50.920;5.350;2023-04-03T04:34:05;17.42;;;12.55;;
41667;SDS011;27356;50.920;5.350;2023-04-03T04:36:31;21.05;;;13.05;;
41667;SDS011;27356;50.920;5.350;2023-04-03T04:38:57;19.83;;;12.25;;
41667;SDS011;27356;50.920;5.350;2023-04-03T04:41:23;18.73;;;12.25;;
41667;SDS011;27356;50.920;5.350;2023-04-03T04:43:49;17.50;;;12.38;;
41667;SDS011;27356;50.920;5.350;2023-04-03T04:46:16;21.50;;;12.80;;
41667;SDS011;27356;50.920;5.350;2023-04-03T04:48:42;17.02;;;12.32;;
41667;SDS011;27356;50.920;5.350;2023-04-03T04:51:08;19.95;;;12.50;;
41667;SDS011;27356;50.920;5.350;2023-04-03T04:53:34;21.58;;;11.73;;
41667;SDS011;27356;50.920;5.350;2023-04-03T04:55:59;15.75;;;11.05;;
41667;SDS011;27356;50.920;5.350;2023-04-03T04:58:25;17.98;;;11.57;;
41667;SDS011;27356;50.920;5.350;2023-04-03T05:00:58;19.73;;;13.52;;
41667;SDS011;27356;50.920;5.350;2023-04-03T05:03:25;16.65;;;12.45;;
41667;SDS011;27356;50.920;5.350;2023-04-03T05:05:50;25.98;;;12.90;;
41667;SDS011;27356;50.920;5.350;2023-04-03T05:08:16;16.05;;;11.98;;
41667;SDS011;27356;50.920;5.350;2023-04-03T05:10:42;22.60;;;13.90;;
41667;SDS011;27356;50.920;5.350;2023-04-03T05:13:09;25.92;;;14.57;;
41667;SDS011;27356;50.920;5.350;2023-04-03T05:15:35;24.88;;;15.85;;
41667;SDS011;27356;50.920;5.350;2023-04-03T05:18:00;25.17;;;17.20;;
41667;SDS011;27356;50.920;5.350;2023-04-03T05:20:26;22.80;;;15.70;;
41667;SDS011;27356;50.920;5.350;2023-04-03T05:22:52;31.60;;;16.08;;
41667;SDS011;27356;50.920;5.350;2023-04-03T05:25:17;25.10;;;16.98;;
41667;SDS011;27356;50.920;5.350;2023-04-03T05:27:43;27.33;;;17.00;;
41667;SDS011;27356;50.920;5.350;2023-04-03T05:30:10;26.15;;;18.30;;
41667;SDS011;27356;50.920;5.350;2023-04-03T05:32:36;27.77;;;17.20;;
41667;SDS011;27356;50.920;5.350;2023-04-03T05:35:02;30.90;;;17.92;;
41667;SDS011;27356;50.920;5.350;2023-04-03T05:37:28;33.42;;;17.15;;
41667;SDS011;27356;50.920;5.350;2023-04-03T05:39:54;25.52;;;16.55;;
41667;SDS011;27356;50.920;5.350;2023-04-03T05:42:20;22.45;;;15.88;;
41667;SDS011;27356;50.920;5.350;2023-04-03T05:44:46;23.35;;;16.05;;
41667;SDS011;27356;50.920;5.350;2023-04-03T05:47:12;24.92;;;14.52;;
41667;SDS011;27356;50.920;5.350;2023-04-03T05:49:38;23.95;;;15.00;;
41667;SDS011;27356;50.920;5.350;2023-04-03T05:52:06;25.35;;;15.05;;
41667;SDS011;27356;50.920;5.350;2023-04-03T05:54:57;19.30;;;14.52;;
41667;SDS011;27356;50.920;5.350;2023-04-03T05:57:23;20.35;;;13.85;;
41667;SDS011;27356;50.920;5.350;2023-04-03T05:59:49;21.35;;;15.20;;
41667;SDS011;27356;50.920;5.350;2023-04-03T06:02:16;25.23;;;13.30;;
41667;SDS011;27356;50.920;5.350;2023-04-03T06:04:43;24.90;;;13.48;;
41667;SDS011;27356;50.920;5.350;2023-04-03T06:07:11;17.50;;;13.30;;
41667;SDS011;27356;50.920;5.350;2023-04-03T06:09:38;13.18;;;11.07;;
41667;SDS011;27356;50.920;5.350;2023-04-03T06:12:04;13.35;;;9.25;;
41667;SDS011;27356;50.920;5.350;2023-04-03T06:14:30;14.75;;;8.52;;
41667;SDS011;27356;50.920;5.350;2023-04-03T06:16:55;11.05;;;6.28;;
41667;SDS011;27356;50.920;5.350;2023-04-03T06:19:22;8.82;;;5.10;;
41667;SDS011;27356;50.920;5.350;2023-04-03T06:21:47;7.00;;;4.93;;
41667;SDS011;27356;50.920;5.350;2023-04-03T06:24:14;8.43;;;5.07;;
41667;SDS011;27356;50.920;5.350;2023-04-03T06:26:41;10.57;;;4.70;;
41667;SDS011;27356;50.920;5.350;2023-04-03T06:29:07;11.18;;;4.45;;
41667;SDS011;27356;50.920;5.350;2023-04-03T06:31:33;8.90;;;4.47;;
41667;SDS011;27356;50.920;5.350;2023-04-03T06:34:00;6.97;;;4.47;;
41667;SDS011;27356;50.920;5.350;2023-04-03T06:36:26;11.07;;;4.63;;
41667;SDS011;27356;50.920;5.350;2023-04-03T06:38:51;11.73;;;4.80;;
41667;SDS011;27356;50.920;5.350;2023-04-03T06:41:17;8.10;;;4.65;;
41667;SDS011;27356;50.920;5.350;2023-04-03T06:43:43;8.32;;;3.95;;
41667;SDS011;27356;50.920;5.350;2023-04-03T06:46:20;6.22;;;3.47;;
41667;SDS011;27356;50.920;5.350;2023-04-03T06:48:47;6.60;;;3.45;;
41667;SDS011;27356;50.920;5.350;2023-04-03T06:51:18;7.28;;;3.78;;
41667;SDS011;27356;50.920;5.350;2023-04-03T06:53:45;7.35;;;3.70;;
41667;SDS011;27356;50.920;5.350;2023-04-03T06:56:11;8.73;;;3.67;;
41667;SDS011;27356;50.920;5.350;2023-04-03T06:58:37;4.35;;;3.05;;
41667;SDS011;27356;50.920;5.350;2023-04-03T07:01:03;7.78;;;3.67;;
41667;SDS011;27356;50.920;5.350;2023-04-03T07:03:30;7.32;;;3.17;;
41667;SDS011;27356;50.920;5.350;2023-04-03T07:05:56;7.20;;;3.30;;
41667;SDS011;27356;50.920;5.350;2023-04-03T07:08:21;7.85;;;3.65;;
41667;SDS011;27356;50.920;5.350;2023-04-03T07:10:48;3.58;;;3.22;;
41667;SDS011;27356;50.920;5.350;2023-04-03T07:13:15;7.50;;;3.05;;
41667;SDS011;27356;50.920;5.350;2023-04-03T07:15:41;6.40;;;3.15;;
41667;SDS011;27356;50.920;5.350;2023-04-03T07:18:07;6.72;;;3.42;;
41667;SDS011;27356;50.920;5.350;2023-04-03T07:20:34;4.88;;;3.08;;
41667;SDS011;27356;50.920;5.350;2023-04-03T07:23:00;4.45;;;2.95;;
41667;SDS011;27356;50.920;5.350;2023-04-03T07:25:27;13.25;;;3.30;;
41667;SDS011;27356;50.920;5.350;2023-04-03T07:27:53;5.72;;;2.60;;
41667;SDS011;27356;50.920;5.350;2023-04-03T07:30:19;4.47;;;2.50;;
41667;SDS011;27356;50.920;5.350;2023-04-03T07:32:46;5.78;;;2.88;;
41667;SDS011;27356;50.920;5.350;2023-04-03T07:35:11;7.22;;;2.78;;
41667;SDS011;27356;50.920;5.350;2023-04-03T07:37:37;6.03;;;2.90;;
41667;SDS011;27356;50.920;5.350;2023-04-03T07:40:03;5.68;;;2.97;;
41667;SDS011;27356;50.920;5.350;2023-04-03T07:42:30;3.55;;;2.22;;
41667;SDS011;27356;50.920;5.350;2023-04-03T07:44:56;6.40;;;3.25;;
41667;SDS011;27356;50.920;5.350;2023-04-03T07:47:22;7.18;;;2.83;;
41667;SDS011;27356;50.920;5.350;2023-04-03T07:49:48;4.15;;;2.30;;
41667;SDS011;27356;50.920;5.350;2023-04-03T07:52:14;5.47;;;2.70;;
41667;SDS011;27356;50.920;5.350;2023-04-03T07:54:40;8.55;;;2.45;;
41667;SDS011;27356;50.920;5.350;2023-04-03T07:57:07;3.80;;;2.50;;
41667;SDS011;27356;50.920;5.350;2023-04-03T07:59:33;4.13;;;2.28;;
41667;SDS011;27356;50.920;5.350;2023-04-03T08:01:58;6.72;;;2.55;;
41667;SDS011;27356;50.920;5.350;2023-04-03T08:04:24;5.88;;;2.90;;
41667;SDS011;27356;50.920;5.350;2023-04-03T08:06:51;6.07;;;1.95;;
41667;SDS011;27356;50.920;5.350;2023-04-03T08:09:17;4.82;;;2.28;;
41667;SDS011;27356;50.920;5.350;2023-04-03T08:11:44;9.82;;;2.00;;
41667;SDS011;27356;50.920;5.350;2023-04-03T08:14:10;4.22;;;2.20;;
41667;SDS011;27356;50.920;5.350;2023-04-03T08:16:41;5.55;;;2.45;;
41667;SDS011;27356;50.920;5.350;2023-04-03T08:19:08;6.38;;;2.42;;
41667;SDS011;27356;50.920;5.350;2023-04-03T08:21:36;3.92;;;1.75;;
41667;SDS011;27356;50.920;5.350;2023-04-03T08:24:01;4.00;;;1.83;;
41667;SDS011;27356;50.920;5.350;2023-04-03T08:26:29;5.40;;;1.90;;
41667;SDS011;27356;50.920;5.350;2023-04-03T08:28:56;6.43;;;1.70;;
41667;SDS011;27356;50.920;5.350;2023-04-03T08:31:23;7.15;;;2.15;;
41667;SDS011;27356;50.920;5.350;2023-04-03T08:33:49;4.95;;;1.70;;
41667;SDS011;27356;50.920;5.350;2023-04-03T08:36:18;6.28;;;1.80;;
41667;SDS011;27356;50.920;5.350;2023-04-03T08:38:46;2.38;;;1.48;;
41667;SDS011;27356;50.920;5.350;2023-04-03T08:49:48;4.05;;;1.35;;
41667;SDS011;27356;50.920;5.350;2023-04-03T08:52:20;5.50;;;1.55;;
41667;SDS011;27356;50.920;5.350;2023-04-03T08:54:57;4.75;;;2.03;;
41667;SDS011;27356;50.920;5.350;2023-04-03T09:02:56;5.32;;;1.77;;
41667;SDS011;27356;50.920;5.350;2023-04-03T09:08:04;3.28;;;1.38;;
41667;SDS011;27356;50.920;5.350;2023-04-03T09:10:37;2.53;;;1.48;;
41667;SDS011;27356;50.920;5.350;2023-04-03T09:15:58;3.42;;;1.75;;
41667;SDS011;27356;50.920;5.350;2023-04-03T09:18:28;8.82;;;1.85;;
41667;SDS011;27356;50.920;5.350;2023-04-03T09:21:01;5.35;;;1.50;;
41667;SDS011;27356;50.920;5.350;2023-04-03T09:26:25;6.60;;;1.67;;
41667;SDS011;27356;50.920;5.350;2023-04-03T09:29:01;3.20;;;1.30;;
41667;SDS011;27356;50.920;5.350;2023-04-03T09:31:38;4.05;;;1.58;;
41667;SDS011;27356;50.920;5.350;2023-04-03T09:34:10;5.60;;;1.52;;
41667;SDS011;27356;50.920;5.350;2023-04-03T09:36:46;4.97;;;1.55;;
41667;SDS011;27356;50.920;5.350;2023-04-03T09:39:24;6.70;;;1.85;;
41667;SDS011;27356;50.920;5.350;2023-04-03T09:41:57;4.30;;;1.60;;
41667;SDS011;27356;50.920;5.350;2023-04-03T09:44:24;5.35;;;1.52;;
41667;SDS011;27356;50.920;5.350;2023-04-03T09:47:24;2.85;;;1.35;;
41667;SDS011;27356;50.920;5.350;2023-04-03T09:52:39;5.50;;;1.63;;
41667;SDS011;27356;50.920;5.350;2023-04-03T09:55:20;9.82;;;1.50;;
41667;SDS011;27356;50.920;5.350;2023-04-03T09:57:55;3.85;;;1.60;;
41667;SDS011;27356;50.920;5.350;2023-04-03T10:00:35;3.25;;;1.23;;
41667;SDS011;27356;50.920;5.350;2023-04-03T10:03:23;3.38;;;2.25;;
41667;SDS011;27356;50.920;5.350;2023-04-03T10:05:52;4.15;;;1.92;;
41667;SDS011;27356;50.920;5.350;2023-04-03T10:08:30;8.73;;;1.75;;
41667;SDS011;27356;50.920;5.350;2023-04-03T10:11:10;5.65;;;1.83;;
41667;SDS011;27356;50.920;5.350;2023-04-03T10:13:36;5.45;;;2.30;;
41667;SDS011;27356;50.920;5.350;2023-04-03T10:16:16;4.03;;;1.50;;
41667;SDS011;27356;50.920;5.350;2023-04-03T10:19:09;4.70;;;1.10;;
41667;SDS011;27356;50.920;5.350;2023-04-03T10:21:59;2.42;;;1.00;;
41667;SDS011;27356;50.920;5.350;2023-04-03T10:24:36;1.30;;;0.90;;
41667;SDS011;27356;50.920;5.350;2023-04-03T10:36:02;2.88;;;0.70;;
41667;SDS011;27356;50.920;5.350;2023-04-03T10:41:17;3.22;;;0.93;;
41667;SDS011;27356;50.920;5.350;2023-04-03T10:46:43;0.90;;;0.60;;
41667;SDS011;27356;50.920;5.350;2023-04-03T10:49:28;2.03;;;0.90;;
41667;SDS011;27356;50.920;5.350;2023-04-03T10:55:17;1.45;;;0.57;;
41667;SDS011;27356;50.920;5.350;2023-04-03T10:58:08;2.72;;;0.75;;
41667;SDS011;27356;50.920;5.350;2023-04-03T11:00:46;2.00;;;0.70;;
41667;SDS011;27356;50.920;5.350;2023-04-03T11:03:32;2.38;;;0.80;;
41667;SDS011;27356;50.920;5.350;2023-04-03T11:06:09;1.65;;;0.30;;
41667;SDS011;27356;50.920;5.350;2023-04-03T11:08:44;1.38;;;0.60;;
41667;SDS011;27356;50.920;5.350;2023-04-03T11:11:17;3.60;;;0.57;;
41667;SDS011;27356;50.920;5.350;2023-04-03T11:13:52;0.65;;;0.47;;
41667;SDS011;27356;50.920;5.350;2023-04-03T11:16:27;1.48;;;0.70;;
41667;SDS011;27356;50.920;5.350;2023-04-03T11:21:28;2.23;;;0.57;;
41667;SDS011;27356;50.920;5.350;2023-04-03T11:23:59;4.35;;;0.50;;
41667;SDS011;27356;50.920;5.350;2023-04-03T11:26:30;2.20;;;0.70;;
41667;SDS011;27356;50.920;5.350;2023-04-03T11:29:03;3.10;;;0.60;;
41667;SDS011;27356;50.920;5.350;2023-04-03T11:31:37;1.20;;;0.73;;
41667;SDS011;27356;50.920;5.350;2023-04-03T11:37:13;5.00;;;0.90;;
41667;SDS011;27356;50.920;5.350;2023-04-03T11:40:02;2.60;;;0.90;;
41667;SDS011;27356;50.920;5.350;2023-04-03T11:42:44;2.58;;;0.80;;
41667;SDS011;27356;50.920;5.350;2023-04-03T11:45:21;1.95;;;0.75;;
41667;SDS011;27356;50.920;5.350;2023-04-03T11:47:56;3.42;;;0.75;;
41667;SDS011;27356;50.920;5.350;2023-04-03T12:05:51;1.50;;;0.85;;
41667;SDS011;27356;50.920;5.350;2023-04-03T12:08:27;2.15;;;0.90;;
41667;SDS011;27356;50.920;5.350;2023-04-03T12:16:22;7.80;;;1.23;;
41667;SDS011;27356;50.920;5.350;2023-04-03T12:18:55;1.55;;;0.77;;
41667;SDS011;27356;50.920;5.350;2023-04-03T12:48:33;2.70;;;1.10;;
41667;SDS011;27356;50.920;5.350;2023-04-03T12:51:09;2.58;;;0.98;;
41667;SDS011;27356;50.920;5.350;2023-04-03T12:54:03;4.35;;;0.90;;
41667;SDS011;27356;50.920;5.350;2023-04-03T12:56:38;3.08;;;1.05;;
41667;SDS011;27356;50.920;5.350;2023-04-03T12:59:26;2.90;;;1.17;;
41667;SDS011;27356;50.920;5.350;2023-04-03T13:02:02;6.28;;;1.48;;
41667;SDS011;27356;50.920;5.350;2023-04-03T13:04:28;1.52;;;0.98;;
41667;SDS011;27356;50.920;5.350;2023-04-03T13:06:56;6.07;;;1.33;;
41667;SDS011;27356;50.920;5.350;2023-04-03T13:09:24;1.98;;;1.23;;
41667;SDS011;27356;50.920;5.350;2023-04-03T13:12:03;4.18;;;1.50;;
41667;SDS011;27356;50.920;5.350;2023-04-03T13:14:39;4.15;;;1.65;;
41667;SDS011;27356;50.920;5.350;2023-04-03T13:17:16;7.03;;;1.63;;
41667;SDS011;27356;50.920;5.350;2023-04-03T13:19:43;4.95;;;1.52;;
41667;SDS011;27356;50.920;5.350;2023-04-03T13:24:59;2.55;;;1.25;;
41667;SDS011;27356;50.920;5.350;2023-04-03T13:27:30;2.67;;;1.23;;
41667;SDS011;27356;50.920;5.350;2023-04-03T13:29:57;3.75;;;1.10;;
41667;SDS011;27356;50.920;5.350;2023-04-03T13:32:26;5.28;;;1.38;;
41667;SDS011;27356;50.920;5.350;2023-04-03T13:34:54;2.80;;;1.20;;
41667;SDS011;27356;50.920;5.350;2023-04-03T13:37:28;3.38;;;1.60;;
41667;SDS011;27356;50.920;5.350;2023-04-03T13:42:35;2.30;;;1.17;;
41667;SDS011;27356;50.920;5.350;2023-04-03T13:45:11;2.88;;;1.13;;
41667;SDS011;27356;50.920;5.350;2023-04-03T13:47:49;5.30;;;1.33;;
41667;SDS011;27356;50.920;5.350;2023-04-03T13:50:23;3.20;;;1.40;;
41667;SDS011;27356;50.920;5.350;2023-04-03T13:53:00;3.17;;;1.00;;
41667;SDS011;27356;50.920;5.350;2023-04-03T13:55:39;1.85;;;1.10;;
41667;SDS011;27356;50.920;5.350;2023-04-03T13:58:51;2.40;;;0.98;;
41667;SDS011;27356;50.920;5.350;2023-04-03T14:01:25;2.72;;;1.00;;
41667;SDS011;27356;50.920;5.350;2023-04-03T14:06:24;1.95;;;0.90;;
41667;SDS011;27356;50.920;5.350;2023-04-03T14:08:50;3.38;;;1.38;;
41667;SDS011;27356;50.920;5.350;2023-04-03T14:13:48;2.15;;;1.00;;
41667;SDS011;27356;50.920;5.350;2023-04-03T14:16:15;2.47;;;1.38;;
41667;SDS011;27356;50.920;5.350;2023-04-03T14:18:47;2.73;;;1.30;;
41667;SDS011;27356;50.920;5.350;2023-04-03T14:21:16;3.33;;;1.00;;
41667;SDS011;27356;50.920;5.350;2023-04-03T14:23:43;1.88;;;1.05;;
41667;SDS011;27356;50.920;5.350;2023-04-03T14:26:12;2.58;;;1.33;;
41667;SDS011;27356;50.920;5.350;2023-04-03T14:28:41;5.28;;;1.27;;
41667;SDS011;27356;50.920;5.350;2023-04-03T14:31:09;4.03;;;1.52;;
41667;SDS011;27356;50.920;5.350;2023-04-03T14:33:35;5.40;;;1.52;;
41667;SDS011;27356;50.920;5.350;2023-04-03T14:36:09;7.30;;;1.40;;
41667;SDS011;27356;50.920;5.350;2023-04-03T14:38:38;4.20;;;1.35;;
41667;SDS011;27356;50.920;5.350;2023-04-03T14:41:04;2.10;;;0.85;;
41667;SDS011;27356;50.920;5.350;2023-04-03T14:43:30;4.75;;;1.38;;
41667;SDS011;27356;50.920;5.350;2023-04-03T14:45:56;3.65;;;1.42;;
41667;SDS011;27356;50.920;5.350;2023-04-03T14:48:23;3.70;;;1.00;;
41667;SDS011;27356;50.920;5.350;2023-04-03T14:50:51;3.42;;;1.40;;
41667;SDS011;27356;50.920;5.350;2023-04-03T14:53:18;4.53;;;1.30;;
41667;SDS011;27356;50.920;5.350;2023-04-03T14:55:47;3.35;;;1.33;;
41667;SDS011;27356;50.920;5.350;2023-04-03T14:58:19;2.28;;;1.10;;
41667;SDS011;27356;50.920;5.350;2023-04-03T15:00:45;3.72;;;1.40;;
41667;SDS011;27356;50.920;5.350;2023-04-03T15:03:15;6.82;;;1.02;;
41667;SDS011;27356;50.920;5.350;2023-04-03T15:05:43;4.75;;;1.27;;
41667;SDS011;27356;50.920;5.350;2023-04-03T15:08:17;2.72;;;1.15;;
41667;SDS011;27356;50.920;5.350;2023-04-03T15:10:44;3.22;;;0.95;;
41667;SDS011;27356;50.920;5.350;2023-04-03T15:13:10;1.52;;;0.95;;
41667;SDS011;27356;50.920;5.350;2023-04-03T15:15:38;2.78;;;1.55;;
41667;SDS011;27356;50.920;5.350;2023-04-03T15:18:04;4.35;;;1.48;;
41667;SDS011;27356;50.920;5.350;2023-04-03T15:20:30;1.90;;;1.05;;
41667;SDS011;27356;50.920;5.350;2023-04-03T15:22:58;3.65;;;1.10;;
41667;SDS011;27356;50.920;5.350;2023-04-03T15:25:27;3.65;;;1.10;;
41667;SDS011;27356;50.920;5.350;2023-04-03T15:27:54;2.65;;;1.10;;
41667;SDS011;27356;50.920;5.350;2023-04-03T15:30:21;3.97;;;1.30;;
41667;SDS011;27356;50.920;5.350;2023-04-03T15:32:47;3.28;;;1.17;;
41667;SDS011;27356;50.920;5.350;2023-04-03T15:35:13;5.35;;;1.13;;
41667;SDS011;27356;50.920;5.350;2023-04-03T15:37:39;2.40;;;1.13;;
41667;SDS011;27356;50.920;5.350;2023-04-03T15:40:05;3.10;;;1.30;;
41667;SDS011;27356;50.920;5.350;2023-04-03T15:42:32;3.55;;;1.38;;
41667;SDS011;27356;50.920;5.350;2023-04-03T15:44:58;2.75;;;1.02;;
41667;SDS011;27356;50.920;5.350;2023-04-03T15:47:24;4.43;;;1.42;;
41667;SDS011;27356;50.920;5.350;2023-04-03T15:49:51;4.82;;;1.08;;
41667;SDS011;27356;50.920;5.350;2023-04-03T15:52:18;2.78;;;1.15;;
41667;SDS011;27356;50.920;5.350;2023-04-03T15:54:44;2.05;;;0.90;;
41667;SDS011;27356;50.920;5.350;2023-04-03T15:57:10;1.98;;;1.15;;
41667;SDS011;27356;50.920;5.350;2023-04-03T15:59:35;2.72;;;1.38;;
41667;SDS011;27356;50.920;5.350;2023-04-03T16:02:01;2.53;;;1.00;;
41667;SDS011;27356;50.920;5.350;2023-04-03T16:04:30;3.25;;;1.17;;
41667;SDS011;27356;50.920;5.350;2023-04-03T16:06:57;6.28;;;1.40;;
41667;SDS011;27356;50.920;5.350;2023-04-03T16:09:26;4.10;;;1.27;;
41667;SDS011;27356;50.920;5.350;2023-04-03T16:11:52;2.45;;;1.17;;
41667;SDS011;27356;50.920;5.350;2023-04-03T16:14:18;3.53;;;1.42;;
41667;SDS011;27356;50.920;5.350;2023-04-03T16:16:43;2.28;;;1.17;;
41667;SDS011;27356;50.920;5.350;2023-04-03T16:19:09;5.28;;;1.13;;
41667;SDS011;27356;50.920;5.350;2023-04-03T16:21:35;4.28;;;1.10;;
41667;SDS011;27356;50.920;5.350;2023-04-03T16:24:01;4.93;;;0.95;;
41667;SDS011;27356;50.920;5.350;2023-04-03T16:26:27;8.85;;;1.60;;
41667;SDS011;27356;50.920;5.350;2023-04-03T16:28:53;3.20;;;1.77;;
41667;SDS011;27356;50.920;5.350;2023-04-03T16:31:19;2.08;;;1.02;;
41667;SDS011;27356;50.920;5.350;2023-04-03T16:33:45;5.57;;;1.08;;
41667;SDS011;27356;50.920;5.350;2023-04-03T16:36:11;11.15;;;1.85;;
41667;SDS011;27356;50.920;5.350;2023-04-03T16:38:37;4.43;;;1.30;;
41667;SDS011;27356;50.920;5.350;2023-04-03T16:41:03;2.10;;;1.20;;
41667;SDS011;27356;50.920;5.350;2023-04-03T16:43:32;3.55;;;1.05;;
41667;SDS011;27356;50.920;5.350;2023-04-03T16:45:59;2.33;;;1.23;;
41667;SDS011;27356;50.920;5.350;2023-04-03T16:48:27;2.15;;;1.20;;
41667;SDS011;27356;50.920;5.350;2023-04-03T16:50:53;3.03;;;1.23;;
41667;SDS011;27356;50.920;5.350;2023-04-03T16:53:20;1.33;;;1.10;;
41667;SDS011;27356;50.920;5.350;2023-04-03T16:55:46;3.28;;;0.80;;